CheckWX is a tool to help pilots better visualize weather data.  It is not intended as a substitute for an official pre-flight weather briefing.

20:27:38 UTC

EDDR TAF
Saarbrücken Airport
Saarbrücken, Germany
TAF EDDR 251700Z 2518/2618 20008KT CAVOK BECMG 2518/2520 14003KT

Jun-25@
18:00 UTC

Jun-25 @ 18:00 UTC

Jun-26@
18:00 UTC

Jun-26 @ 18:00 UTC

TAF EDDR 251700Z 2518/2618 20008KT CAVOK
Wind
  • 200° at 8 KTS
Conditions
No significant weather
Cloud Levels
  • No significant clouds

Jun-25@
18:00 UTC

Jun-25 @ 18:00 UTC

Jun-26@
18:00 UTC

Jun-26 @ 18:00 UTC

BECMG 2518/2520 14003KT

Becoming

Becoming Conditions expected by Tue, Jun 25, 2019 @ 20:00 UTC

Wind
  • 140° at 3 KTS
Conditions
No significant weather
Cloud Levels
  • No significant clouds